createdAt,value
2022-12-09T00:00:10.635Z,3.34
2022-12-09T00:01:33.671Z,3.35
2022-12-09T00:02:55.299Z,3.35
2022-12-09T00:04:17.658Z,3.36
2022-12-09T00:05:41.251Z,3.35
2022-12-09T00:07:03.131Z,3.36
2022-12-09T00:08:27.155Z,3.35
2022-12-09T00:09:49.339Z,3.35
2022-12-09T00:11:10.618Z,3.35
2022-12-09T00:12:33.601Z,3.37
2022-12-09T00:13:58.440Z,3.37
2022-12-09T00:15:20.626Z,3.36
2022-12-09T00:16:42.595Z,3.34
2022-12-09T00:18:06.230Z,3.34
2022-12-09T00:19:28.463Z,3.33
2022-12-09T00:20:50.133Z,3.29
2022-12-09T00:22:12.325Z,3.28
2022-12-09T00:23:34.178Z,3.27
2022-12-09T00:24:56.349Z,3.26
2022-12-09T00:26:20.108Z,3.24
2022-12-09T00:27:43.712Z,3.24
2022-12-09T00:29:06.275Z,3.25
2022-12-09T00:30:28.620Z,3.25
2022-12-09T00:31:50.312Z,3.25
2022-12-09T00:33:11.087Z,3.24
2022-12-09T00:34:33.099Z,3.25
2022-12-09T00:35:55.223Z,3.26
2022-12-09T00:37:17.527Z,3.26
2022-12-09T00:38:38.218Z,3.24
2022-12-09T00:40:00.115Z,3.23
2022-12-09T00:41:24.678Z,3.23
2022-12-09T00:42:47.874Z,3.23
2022-12-09T00:44:09.668Z,3.25
2022-12-09T00:45:30.254Z,3.25
2022-12-09T00:46:52.280Z,3.26
2022-12-09T00:48:14.293Z,3.27
2022-12-09T00:49:35.773Z,3.26
2022-12-09T00:50:57.775Z,3.26
2022-12-09T00:52:19.254Z,3.26
2022-12-09T00:53:40.773Z,3.27
2022-12-09T00:55:02.807Z,3.26
2022-12-09T00:56:28.711Z,3.26
2022-12-09T00:57:52.237Z,3.25
2022-12-09T00:59:12.970Z,3.24
2022-12-09T01:00:34.957Z,3.23
2022-12-09T01:01:57.081Z,3.22
2022-12-09T01:03:19.901Z,3.22
2022-12-09T01:04:42.434Z,3.21
2022-12-09T01:06:09.659Z,3.21
2022-12-09T01:07:31.643Z,3.19
2022-12-09T01:08:53.863Z,3.19
2022-12-09T01:10:15.970Z,3.19
2022-12-09T01:11:37.145Z,3.20
2022-12-09T01:13:01.672Z,3.19
2022-12-09T01:14:23.580Z,3.19
2022-12-09T01:15:44.618Z,3.20
2022-12-09T01:17:06.873Z,3.21
2022-12-09T01:18:27.821Z,3.22
2022-12-09T01:19:49.358Z,3.22
2022-12-09T01:21:10.146Z,3.24
2022-12-09T01:22:32.116Z,3.24
2022-12-09T01:23:53.055Z,3.24
2022-12-09T01:25:16.137Z,3.25
2022-12-09T01:26:39.253Z,3.27
2022-12-09T01:28:02.417Z,3.27
2022-12-09T01:29:24.114Z,3.28
2022-12-09T01:30:45.161Z,3.28
2022-12-09T01:32:07.373Z,3.30
2022-12-09T01:33:28.858Z,3.29
2022-12-09T01:34:51.239Z,3.28
2022-12-09T01:36:13.435Z,3.29
2022-12-09T01:37:36.724Z,3.29
2022-12-09T01:39:00.014Z,3.28
2022-12-09T01:40:20.799Z,3.28
2022-12-09T01:41:52.900Z,3.29
2022-12-09T01:43:19.808Z,3.30
2022-12-09T01:45:01.566Z,3.30
2022-12-09T01:46:23.593Z,3.30
2022-12-09T01:47:45.893Z,3.30
2022-12-09T01:49:08.698Z,3.31
2022-12-09T01:50:30.645Z,3.29
2022-12-09T01:52:02.935Z,3.30
2022-12-09T01:53:25.652Z,3.28
2022-12-09T01:54:48.514Z,3.28
2022-12-09T01:56:12.705Z,3.29
2022-12-09T01:57:33.132Z,3.28
2022-12-09T01:58:58.657Z,3.29
2022-12-09T02:00:20.364Z,3.28
2022-12-09T02:01:45.805Z,3.27
2022-12-09T02:03:07.206Z,3.28
2022-12-09T02:04:30.209Z,3.27
2022-12-09T02:05:56.848Z,3.27
2022-12-09T02:07:19.288Z,3.26
2022-12-09T02:08:41.988Z,3.27
2022-12-09T02:10:04.338Z,3.26
2022-12-09T02:11:40.928Z,3.26
2022-12-09T02:13:05.929Z,3.27
2022-12-09T02:14:32.963Z,3.27
2022-12-09T02:15:55.183Z,3.26
2022-12-09T02:17:27.074Z,3.28
2022-12-09T02:18:52.861Z,3.27
2022-12-09T02:20:18.010Z,3.27
2022-12-09T02:21:43.932Z,3.24
2022-12-09T02:23:07.752Z,3.27
2022-12-09T02:24:36.438Z,3.29
2022-12-09T02:26:06.267Z,3.29
2022-12-09T02:27:31.352Z,3.30
2022-12-09T02:29:08.703Z,3.30
2022-12-09T02:30:34.720Z,3.30
2022-12-09T02:32:12.464Z,3.30
2022-12-09T02:33:41.350Z,3.29
2022-12-09T02:35:11.377Z,3.28
2022-12-09T02:36:42.459Z,3.27
2022-12-09T02:38:09.152Z,3.29
2022-12-09T02:39:37.207Z,3.26
2022-12-09T02:41:00.935Z,3.26
2022-12-09T02:42:24.695Z,3.23
2022-12-09T02:43:50.292Z,3.22
2022-12-09T02:45:20.886Z,3.22
2022-12-09T02:46:48.223Z,3.20
2022-12-09T02:48:11.261Z,3.19
2022-12-09T02:49:42.122Z,3.18
2022-12-09T02:51:10.901Z,3.15
2022-12-09T02:52:39.835Z,3.14
2022-12-09T02:54:06.839Z,3.12
2022-12-09T02:55:31.027Z,3.10
2022-12-09T02:56:54.444Z,3.08
2022-12-09T02:58:16.764Z,3.07
2022-12-09T02:59:37.929Z,3.02
2022-12-09T03:00:59.921Z,3.03
2022-12-09T03:02:26.540Z,3.00
2022-12-09T03:03:48.573Z,2.98
2022-12-09T03:05:14.345Z,2.97
2022-12-09T03:06:40.297Z,2.94
2022-12-09T03:08:07.347Z,2.93
2022-12-09T03:09:32.195Z,2.91
2022-12-09T03:10:56.152Z,2.89
2022-12-09T03:12:24.015Z,2.87
2022-12-09T03:13:51.759Z,2.85
2022-12-09T03:15:14.432Z,2.82
2022-12-09T03:16:37.641Z,2.83
2022-12-09T03:17:59.090Z,2.80
2022-12-09T03:19:23.462Z,2.78
2022-12-09T03:20:45.662Z,2.78
2022-12-09T03:22:10.477Z,2.75
2022-12-09T03:23:36.290Z,2.75
2022-12-09T03:25:00.592Z,2.73
2022-12-09T03:26:23.536Z,2.73
2022-12-09T03:27:48.104Z,2.73
2022-12-09T03:29:12.650Z,2.74
2022-12-09T03:30:35.010Z,2.74
2022-12-09T03:31:58.194Z,2.75
2022-12-09T03:33:21.375Z,2.75
2022-12-09T03:34:46.039Z,2.77
2022-12-09T03:36:11.250Z,2.78
2022-12-09T03:37:33.792Z,2.79
2022-12-09T03:38:56.262Z,2.80
2022-12-09T03:40:24.289Z,2.81
2022-12-09T03:41:47.676Z,2.83
2022-12-09T03:43:31.825Z,2.85
2022-12-09T03:44:56.859Z,2.88
2022-12-09T03:46:26.005Z,2.90
2022-12-09T03:47:47.577Z,2.93
2022-12-09T03:49:09.824Z,2.96
2022-12-09T03:50:34.362Z,2.98
2022-12-09T03:51:58.118Z,3.00
2022-12-09T03:53:22.671Z,3.03
2022-12-09T03:54:45.348Z,3.06
2022-12-09T03:56:10.346Z,3.08
2022-12-09T03:57:32.463Z,3.11
2022-12-09T03:58:54.427Z,3.12
2022-12-09T04:00:18.861Z,3.14
2022-12-09T04:01:41.097Z,3.16
2022-12-09T04:03:02.991Z,3.17
2022-12-09T04:04:32.247Z,3.20
2022-12-09T04:05:52.991Z,3.22
2022-12-09T04:07:14.674Z,3.23
2022-12-09T04:08:38.114Z,3.24
2022-12-09T04:09:58.950Z,3.26
2022-12-09T04:11:20.453Z,3.27
2022-12-09T04:12:42.244Z,3.30
2022-12-09T04:14:04.877Z,3.29
2022-12-09T04:15:26.927Z,3.30
2022-12-09T04:16:47.895Z,3.32
2022-12-09T04:18:10.774Z,3.31
2022-12-09T04:19:32.889Z,3.31
2022-12-09T04:20:55.166Z,3.32
2022-12-09T04:22:15.693Z,3.31
2022-12-09T04:23:43.042Z,3.31
2022-12-09T04:25:05.237Z,3.30
2022-12-09T04:26:26.806Z,3.30
2022-12-09T04:27:48.627Z,3.28
2022-12-09T04:29:12.690Z,3.27
2022-12-09T04:30:33.501Z,3.26
2022-12-09T04:31:55.653Z,3.23
2022-12-09T04:33:16.501Z,3.21
2022-12-09T04:34:39.664Z,3.19
2022-12-09T04:36:04.354Z,3.17
2022-12-09T04:37:26.241Z,3.13
2022-12-09T04:38:48.462Z,3.11
2022-12-09T04:40:11.357Z,3.06
2022-12-09T04:41:33.610Z,3.02
2022-12-09T04:42:54.862Z,2.97
2022-12-09T04:44:16.903Z,2.94
2022-12-09T04:45:37.892Z,2.89
2022-12-09T04:46:59.495Z,2.82
2022-12-09T04:48:20.443Z,2.77
2022-12-09T04:49:42.102Z,2.72
2022-12-09T04:51:03.945Z,2.65
2022-12-09T04:52:25.277Z,2.59
2022-12-09T04:53:47.157Z,2.54
2022-12-09T04:55:10.422Z,2.50
2022-12-09T04:56:31.503Z,2.45
2022-12-09T04:57:55.491Z,2.39
2022-12-09T04:59:18.023Z,2.35
2022-12-09T05:00:38.822Z,2.30
2022-12-09T05:02:00.992Z,2.26
2022-12-09T05:03:21.897Z,2.22
2022-12-09T05:04:45.434Z,2.17
2022-12-09T05:06:13.320Z,2.13
2022-12-09T05:07:35.663Z,2.09
2022-12-09T05:08:56.502Z,2.07
2022-12-09T05:10:20.358Z,2.04
2022-12-09T05:11:42.722Z,2.00
2022-12-09T05:13:03.957Z,1.96
2022-12-09T05:14:25.813Z,1.94
2022-12-09T05:15:46.523Z,1.91
2022-12-09T05:17:08.761Z,1.88
2022-12-09T05:18:31.463Z,1.87
2022-12-09T05:19:53.213Z,1.85
2022-12-09T05:21:15.361Z,1.83
2022-12-09T05:22:36.953Z,1.82
2022-12-09T05:23:58.240Z,1.81
2022-12-09T05:25:21.052Z,1.82
2022-12-09T05:26:41.888Z,1.81
2022-12-09T05:28:03.842Z,1.82
2022-12-09T05:29:25.962Z,1.83
2022-12-09T05:30:47.309Z,1.83
2022-12-09T05:32:09.815Z,1.86
2022-12-09T05:33:31.983Z,1.87
2022-12-09T05:34:53.323Z,1.90
2022-12-09T05:36:16.304Z,1.92
2022-12-09T05:37:37.355Z,1.94
2022-12-09T05:38:59.187Z,1.98
2022-12-09T05:40:24.265Z,2.01
2022-12-09T05:41:47.987Z,2.03
2022-12-09T05:43:09.921Z,2.05
2022-12-09T05:44:32.246Z,2.07
2022-12-09T05:45:52.963Z,2.11
2022-12-09T05:47:14.942Z,2.13
2022-12-09T05:48:36.417Z,2.17
2022-12-09T05:50:02.965Z,2.19
2022-12-09T05:51:28.735Z,2.22
2022-12-09T05:52:50.691Z,2.24
2022-12-09T05:54:12.191Z,2.29
2022-12-09T05:55:36.626Z,2.31
2022-12-09T05:57:01.432Z,2.35
2022-12-09T05:58:23.453Z,2.38
2022-12-09T05:59:45.433Z,2.41
2022-12-09T06:01:07.946Z,2.45
2022-12-09T06:02:30.494Z,2.49
2022-12-09T06:03:53.310Z,2.50
2022-12-09T06:05:15.722Z,2.55
2022-12-09T06:06:37.033Z,2.57
2022-12-09T06:08:03.700Z,2.61
2022-12-09T06:09:28.605Z,2.63
2022-12-09T06:10:51.561Z,2.66
2022-12-09T06:12:13.560Z,2.70
2022-12-09T06:13:35.937Z,2.73
2022-12-09T06:14:57.787Z,2.75
2022-12-09T06:16:20.583Z,2.79
2022-12-09T06:17:42.560Z,2.82
2022-12-09T06:19:04.705Z,2.86
2022-12-09T06:20:27.067Z,2.88
2022-12-09T06:21:49.509Z,2.91
2022-12-09T06:23:11.340Z,2.94
2022-12-09T06:24:33.545Z,2.97
2022-12-09T06:25:56.075Z,2.99
2022-12-09T06:27:18.330Z,3.03
2022-12-09T06:28:40.053Z,3.05
2022-12-09T06:30:03.333Z,3.08
2022-12-09T06:31:31.741Z,3.09
2022-12-09T06:32:54.187Z,3.11
2022-12-09T06:34:15.895Z,3.14
2022-12-09T06:35:38.019Z,3.15
2022-12-09T06:37:00.148Z,3.17
2022-12-09T06:38:20.926Z,3.17
2022-12-09T06:39:42.630Z,3.20
2022-12-09T06:41:08.698Z,3.21
2022-12-09T06:42:30.744Z,3.22
2022-12-09T06:43:52.760Z,3.23
2022-12-09T06:45:14.637Z,3.25
2022-12-09T06:46:37.017Z,3.25
2022-12-09T06:47:59.526Z,3.28
2022-12-09T06:49:22.219Z,3.28
2022-12-09T06:50:44.680Z,3.29
2022-12-09T06:52:06.346Z,3.30
2022-12-09T06:53:28.404Z,3.32
2022-12-09T06:54:50.559Z,3.32
2022-12-09T06:56:14.330Z,3.34
2022-12-09T06:57:37.596Z,3.34
2022-12-09T06:58:59.402Z,3.34
2022-12-09T07:00:22.030Z,3.34
2022-12-09T07:01:44.120Z,3.35
2022-12-09T07:03:06.713Z,3.35
2022-12-09T07:04:29.511Z,3.35
2022-12-09T07:05:52.517Z,3.34
2022-12-09T07:07:15.928Z,3.35
2022-12-09T07:08:37.757Z,3.36
2022-12-09T07:09:59.728Z,3.37
2022-12-09T07:11:23.648Z,3.36
2022-12-09T07:12:45.832Z,3.36
2022-12-09T07:14:08.096Z,3.34
2022-12-09T07:15:29.795Z,3.33
2022-12-09T07:16:51.610Z,3.33
2022-12-09T07:18:16.703Z,3.32
2022-12-09T07:19:38.743Z,3.31
2022-12-09T07:21:06.184Z,3.30
2022-12-09T07:22:27.898Z,3.27
2022-12-09T07:23:49.925Z,3.26
2022-12-09T07:25:12.286Z,3.26
2022-12-09T07:26:35.812Z,3.25
2022-12-09T07:27:58.235Z,3.22
2022-12-09T07:29:20.743Z,3.22
2022-12-09T07:30:44.683Z,3.21
2022-12-09T07:32:07.061Z,3.21
2022-12-09T07:33:29.551Z,3.22
2022-12-09T07:34:51.777Z,3.21
2022-12-09T07:36:17.584Z,3.21
2022-12-09T07:37:42.578Z,3.21
2022-12-09T07:39:06.116Z,3.20
2022-12-09T07:40:28.076Z,3.21
2022-12-09T07:42:00.865Z,3.20
2022-12-09T07:43:25.397Z,3.20
2022-12-09T07:44:50.493Z,3.20
2022-12-09T07:46:16.548Z,3.20
2022-12-09T07:47:41.639Z,3.20
2022-12-09T07:49:07.562Z,3.20
2022-12-09T07:50:30.032Z,3.22
2022-12-09T07:51:58.140Z,3.25
2022-12-09T07:53:23.077Z,3.28
2022-12-09T07:54:44.978Z,3.31
2022-12-09T07:56:07.980Z,3.33
2022-12-09T07:57:37.896Z,3.37
2022-12-09T07:59:00.839Z,3.39
2022-12-09T08:00:23.313Z,3.40
2022-12-09T08:01:45.518Z,3.42
2022-12-09T08:03:06.541Z,3.43
2022-12-09T08:04:28.414Z,3.45
2022-12-09T08:05:51.758Z,3.46
2022-12-09T08:07:14.035Z,3.47
2022-12-09T08:08:36.613Z,3.48
2022-12-09T08:09:58.839Z,3.50
2022-12-09T08:11:21.695Z,3.74
2022-12-09T08:12:46.231Z,4.30
2022-12-09T08:14:12.185Z,4.79
2022-12-09T08:15:34.670Z,5.21
2022-12-09T08:16:56.479Z,5.58
2022-12-09T08:18:18.984Z,5.94
2022-12-09T08:19:41.304Z,6.28
2022-12-09T08:21:05.514Z,6.65
2022-12-09T08:22:27.467Z,7.09
2022-12-09T08:23:49.479Z,7.51
2022-12-09T08:25:12.301Z,7.95
2022-12-09T08:26:35.110Z,8.40
2022-12-09T08:28:02.280Z,8.85
2022-12-09T08:29:25.084Z,9.37
2022-12-09T08:30:47.346Z,9.88
2022-12-09T08:32:09.731Z,10.36
2022-12-09T08:33:32.938Z,10.79
2022-12-09T08:34:54.923Z,11.18
2022-12-09T08:36:17.975Z,11.54
2022-12-09T08:37:40.025Z,11.88
2022-12-09T08:39:03.743Z,12.18
2022-12-09T08:40:26.193Z,12.47
2022-12-09T08:41:48.457Z,12.73
2022-12-09T08:43:12.079Z,12.96
2022-12-09T08:44:34.252Z,13.15
2022-12-09T08:45:56.192Z,13.32
2022-12-09T08:47:18.826Z,13.53
2022-12-09T08:48:42.044Z,13.69
2022-12-09T08:50:04.179Z,13.87
2022-12-09T08:51:27.352Z,14.04
2022-12-09T08:52:49.297Z,14.22
2022-12-09T08:54:11.407Z,14.40
2022-12-09T08:55:35.476Z,14.56
2022-12-09T08:56:58.025Z,14.75
2022-12-09T08:58:22.564Z,14.93
2022-12-09T08:59:47.405Z,15.12
2022-12-09T09:01:10.715Z,15.33
2022-12-09T09:02:33.059Z,15.55
2022-12-09T09:03:55.776Z,15.75
2022-12-09T09:05:20.017Z,15.97
2022-12-09T09:06:45.272Z,16.20
2022-12-09T09:08:07.455Z,16.45
2022-12-09T09:09:29.801Z,16.66
2022-12-09T09:10:52.201Z,16.83
2022-12-09T09:12:14.776Z,16.97
2022-12-09T09:13:38.611Z,17.09
2022-12-09T09:15:03.519Z,17.18
2022-12-09T09:16:32.866Z,17.25
2022-12-09T09:17:55.041Z,17.32
2022-12-09T09:19:18.693Z,17.38
2022-12-09T09:20:44.368Z,17.44
2022-12-09T09:22:06.216Z,17.44
2022-12-09T09:23:28.755Z,17.32
2022-12-09T09:24:52.488Z,17.08
2022-12-09T09:26:15.230Z,16.88
2022-12-09T09:27:37.423Z,16.68
2022-12-09T09:29:00.984Z,16.49
2022-12-09T09:30:23.532Z,16.35
2022-12-09T09:31:48.712Z,16.24
2022-12-09T09:33:13.076Z,16.14
2022-12-09T09:34:35.268Z,16.03
2022-12-09T09:35:58.406Z,15.93
2022-12-09T09:37:20.849Z,15.84
2022-12-09T09:38:43.271Z,15.74
2022-12-09T09:40:06.938Z,15.63
2022-12-09T09:41:38.530Z,15.49
2022-12-09T09:43:00.802Z,15.32
2022-12-09T09:44:32.419Z,15.16
2022-12-09T09:45:55.271Z,14.96
2022-12-09T09:47:19.867Z,14.76
2022-12-09T09:48:42.290Z,14.52
2022-12-09T09:50:09.373Z,14.27
2022-12-09T09:51:37.887Z,14.04
2022-12-09T09:53:02.496Z,13.84
2022-12-09T09:54:30.586Z,13.62
2022-12-09T09:55:56.985Z,13.37
2022-12-09T09:57:22.911Z,13.09
2022-12-09T09:58:49.490Z,12.81
2022-12-09T10:00:22.401Z,12.50
2022-12-09T10:01:47.925Z,12.18
2022-12-09T10:03:12.223Z,11.89
2022-12-09T10:04:39.611Z,11.61
2022-12-09T10:06:05.194Z,11.35
2022-12-09T10:07:32.756Z,11.08
2022-12-09T10:08:59.565Z,10.85
2022-12-09T10:10:28.674Z,10.62
2022-12-09T10:11:57.439Z,10.37
2022-12-09T10:13:26.546Z,10.11
2022-12-09T10:14:54.245Z,9.90
2022-12-09T10:16:19.306Z,9.68
2022-12-09T10:17:47.990Z,9.49
2022-12-09T10:19:13.936Z,9.30
2022-12-09T10:20:35.998Z,9.10
2022-12-09T10:21:59.132Z,8.93
2022-12-09T10:23:22.570Z,8.76
2022-12-09T10:24:48.588Z,8.57
2022-12-09T10:26:16.672Z,8.38
2022-12-09T10:27:41.193Z,8.23
2022-12-09T10:29:06.465Z,8.09
2022-12-09T10:30:35.309Z,7.97
2022-12-09T10:32:00.967Z,7.86
2022-12-09T10:33:27.473Z,7.75
2022-12-09T10:34:49.701Z,7.65
2022-12-09T10:36:35.353Z,7.56
2022-12-09T10:38:10.536Z,7.46
2022-12-09T10:39:35.056Z,7.36
2022-12-09T10:41:03.660Z,7.29
2022-12-09T10:42:44.769Z,7.24
2022-12-09T10:44:18.177Z,7.17
2022-12-09T10:46:16.763Z,7.10
2022-12-09T10:47:31.045Z,7.05
2022-12-09T10:48:56.286Z,7.03
2022-12-09T10:50:30.043Z,7.01
2022-12-09T10:51:53.223Z,6.99
2022-12-09T10:53:17.308Z,6.97
2022-12-09T10:54:41.654Z,6.95
2022-12-09T10:56:04.203Z,6.94
2022-12-09T10:57:28.412Z,6.93
2022-12-09T10:58:50.968Z,6.93
2022-12-09T11:00:24.653Z,6.93
2022-12-09T11:01:50.691Z,6.90
2022-12-09T11:03:28.095Z,6.90
2022-12-09T11:04:51.157Z,6.90
2022-12-09T11:06:19.814Z,6.88
2022-12-09T11:07:49.220Z,6.88
2022-12-09T11:09:20.200Z,6.87
2022-12-09T11:10:49.585Z,6.85
2022-12-09T11:12:18.343Z,6.84
2022-12-09T11:13:43.404Z,6.81
2022-12-09T11:15:06.779Z,6.80
2022-12-09T11:16:29.581Z,6.77
2022-12-09T11:17:56.871Z,6.76
2022-12-09T11:19:29.422Z,6.73
2022-12-09T11:20:59.821Z,6.71
2022-12-09T11:22:24.041Z,6.69
2022-12-09T11:24:00.767Z,6.64
2022-12-09T11:25:26.552Z,6.59
2022-12-09T11:26:48.403Z,6.54
2022-12-09T11:28:23.813Z,6.51
2022-12-09T11:29:46.186Z,6.47
2022-12-09T11:31:32.994Z,6.44
2022-12-09T11:33:01.134Z,6.38
2022-12-09T11:34:28.023Z,6.34
2022-12-09T11:35:56.564Z,6.28
2022-12-09T11:37:18.576Z,6.19
2022-12-09T11:38:41.783Z,6.15
2022-12-09T11:40:03.481Z,6.09
2022-12-09T11:41:44.249Z,6.04
2022-12-09T11:43:09.325Z,5.97
2022-12-09T11:44:32.567Z,5.93
2022-12-09T11:45:54.591Z,5.89
2022-12-09T11:47:22.448Z,5.89
2022-12-09T11:48:50.003Z,5.90
2022-12-09T11:50:18.425Z,5.92
2022-12-09T11:51:42.087Z,5.92
2022-12-09T11:53:18.657Z,5.94
2022-12-09T11:54:44.370Z,5.95
2022-12-09T11:56:08.596Z,5.97
2022-12-09T11:57:34.614Z,5.97
2022-12-09T11:58:59.965Z,5.99
2022-12-09T12:00:23.663Z,6.00
2022-12-09T12:01:48.672Z,6.02
2022-12-09T12:03:14.853Z,6.02
2022-12-09T12:04:37.809Z,6.04
2022-12-09T12:06:02.452Z,6.04
2022-12-09T12:07:29.154Z,6.04
2022-12-09T12:08:52.894Z,6.02
2022-12-09T12:10:17.703Z,6.00
2022-12-09T12:11:43.349Z,5.96
2022-12-09T12:13:11.043Z,5.90
2022-12-09T12:14:32.715Z,5.86
2022-12-09T12:16:00.049Z,5.80
2022-12-09T12:17:27.051Z,5.76
2022-12-09T12:18:51.764Z,5.72
2022-12-09T12:20:15.005Z,5.70
2022-12-09T12:21:51.981Z,5.69
2022-12-09T12:23:35.888Z,5.67
2022-12-09T12:25:18.227Z,5.69
2022-12-09T12:26:42.531Z,5.73
2022-12-09T12:28:15.055Z,5.78
2022-12-09T12:29:43.406Z,5.82
2022-12-09T12:31:11.774Z,5.85
2022-12-09T12:32:41.239Z,5.87
2022-12-09T12:34:27.985Z,5.90
2022-12-09T12:35:55.677Z,5.96
2022-12-09T12:37:28.163Z,5.99
2022-12-09T12:38:58.331Z,6.02
2022-12-09T12:40:27.256Z,6.03
2022-12-09T12:41:52.051Z,6.02
2022-12-09T12:43:39.924Z,6.00
2022-12-09T12:45:20.590Z,5.96
2022-12-09T12:46:48.427Z,5.89
2022-12-09T12:48:17.403Z,5.83
2022-12-09T12:50:03.203Z,5.78
2022-12-09T12:51:29.744Z,5.72
2022-12-09T12:52:57.345Z,5.69
2022-12-09T12:54:23.547Z,5.66
2022-12-09T12:55:49.368Z,5.63
2022-12-09T12:57:16.524Z,5.61
2022-12-09T12:58:56.975Z,5.61
2022-12-09T13:00:21.066Z,5.62
2022-12-09T13:01:52.126Z,5.64
2022-12-09T13:03:20.951Z,5.65
2022-12-09T13:04:48.970Z,5.66
2022-12-09T13:06:12.436Z,5.67
2022-12-09T13:07:38.126Z,5.67
2022-12-09T13:09:04.055Z,5.67
2022-12-09T13:10:28.337Z,5.67
2022-12-09T13:12:08.196Z,5.67
2022-12-09T13:13:33.567Z,5.66
2022-12-09T13:14:56.234Z,5.63
2022-12-09T13:16:21.161Z,5.60
2022-12-09T13:17:44.571Z,5.56
2022-12-09T13:19:09.291Z,5.52
2022-12-09T13:20:34.630Z,5.49
2022-12-09T13:21:56.452Z,5.47
2022-12-09T13:23:31.005Z,5.44
2022-12-09T13:25:00.470Z,5.42
2022-12-09T13:26:26.428Z,5.40
2022-12-09T13:27:51.823Z,5.39
2022-12-09T13:29:17.899Z,5.39
2022-12-09T13:30:42.505Z,5.38
2022-12-09T13:32:09.420Z,5.38
2022-12-09T13:33:40.322Z,5.38
2022-12-09T13:35:06.050Z,5.38
2022-12-09T13:36:36.417Z,5.37
2022-12-09T13:37:59.954Z,5.37
2022-12-09T13:39:36.470Z,5.38
2022-12-09T13:40:59.700Z,5.38
2022-12-09T13:42:51.747Z,5.37
2022-12-09T13:44:14.798Z,5.37
2022-12-09T13:45:41.505Z,5.36
2022-12-09T13:47:26.639Z,5.35
2022-12-09T13:48:49.244Z,5.35
2022-12-09T13:50:24.723Z,5.35
2022-12-09T13:51:48.306Z,5.32
2022-12-09T13:53:25.161Z,5.31
2022-12-09T13:54:49.028Z,5.30
2022-12-09T13:56:20.691Z,5.30
2022-12-09T13:57:50.142Z,5.27
2022-12-09T13:59:40.189Z,5.25
2022-12-09T14:01:14.622Z,5.23
2022-12-09T14:02:42.943Z,5.20
2022-12-09T14:04:09.885Z,5.18
2022-12-09T14:05:36.257Z,5.15
2022-12-09T14:07:09.639Z,5.12
2022-12-09T14:08:34.755Z,5.11
2022-12-09T14:09:57.438Z,5.08
2022-12-09T14:11:34.757Z,5.06
2022-12-09T14:13:05.484Z,5.05
2022-12-09T14:14:53.883Z,5.03
2022-12-09T14:16:17.917Z,5.01
2022-12-09T14:18:01.291Z,5.00
2022-12-09T14:19:44.700Z,4.99
2022-12-09T14:21:28.722Z,4.97
2022-12-09T14:23:23.700Z,4.96
2022-12-09T14:24:45.363Z,4.95
2022-12-09T14:26:09.279Z,4.93
2022-12-09T14:27:31.847Z,4.92
2022-12-09T14:28:56.908Z,4.90
2022-12-09T14:30:39.397Z,4.89
2022-12-09T14:32:03.730Z,4.87
2022-12-09T14:33:31.312Z,4.86
2022-12-09T14:35:06.278Z,4.85
2022-12-09T14:36:31.475Z,4.84
2022-12-09T14:38:03.133Z,4.85
2022-12-09T14:39:28.656Z,4.84
2022-12-09T14:40:54.633Z,4.84
2022-12-09T14:42:26.979Z,4.83
2022-12-09T14:44:12.383Z,4.82
2022-12-09T14:45:44.023Z,4.80
2022-12-09T14:47:17.006Z,4.80
2022-12-09T14:48:41.647Z,4.77
2022-12-09T14:50:08.781Z,4.76
2022-12-09T14:51:34.671Z,4.74
2022-12-09T14:52:58.220Z,4.73
2022-12-09T14:54:21.775Z,4.72
2022-12-09T14:55:43.764Z,4.71
2022-12-09T14:57:11.640Z,4.69
2022-12-09T14:58:36.078Z,4.67
2022-12-09T14:59:58.268Z,4.65
2022-12-09T15:01:21.231Z,4.64
2022-12-09T15:02:49.078Z,4.61
2022-12-09T15:04:30.805Z,4.59
2022-12-09T15:05:57.435Z,4.57
2022-12-09T15:07:20.467Z,4.57
2022-12-09T15:08:42.746Z,4.56
2022-12-09T15:10:06.614Z,4.55
2022-12-09T15:11:33.892Z,4.52
2022-12-09T15:12:56.715Z,4.50
2022-12-09T15:14:30.352Z,4.47
2022-12-09T15:15:52.809Z,4.44
2022-12-09T15:17:23.740Z,4.45
2022-12-09T15:18:47.593Z,4.43
2022-12-09T15:20:09.546Z,4.42
2022-12-09T15:21:31.940Z,4.41
2022-12-09T15:22:54.636Z,4.36
2022-12-09T15:24:18.142Z,4.34
2022-12-09T15:25:48.639Z,4.31
2022-12-09T15:27:18.928Z,4.30
2022-12-09T15:28:47.625Z,4.28
2022-12-09T15:30:22.306Z,4.27
2022-12-09T15:31:49.015Z,4.25
2022-12-09T15:33:17.021Z,4.23
2022-12-09T15:34:38.722Z,4.21
2022-12-09T15:36:03.983Z,4.21
2022-12-09T15:37:27.728Z,4.20
2022-12-09T15:38:51.403Z,4.21
2022-12-09T15:40:15.698Z,4.20
2022-12-09T15:41:57.802Z,4.20
2022-12-09T15:43:19.935Z,4.18
2022-12-09T15:45:02.734Z,4.18
2022-12-09T15:46:49.172Z,4.15
2022-12-09T15:48:12.740Z,4.14
2022-12-09T15:49:48.517Z,4.13
2022-12-09T15:51:34.051Z,4.12
2022-12-09T15:52:57.410Z,4.10
2022-12-09T15:54:22.502Z,4.09
2022-12-09T15:55:50.235Z,4.09
2022-12-09T15:57:14.949Z,4.08
2022-12-09T15:58:40.082Z,4.08
2022-12-09T16:00:02.237Z,4.09
2022-12-09T16:01:50.261Z,4.08
2022-12-09T16:05:57.790Z,4.12
2022-12-09T16:07:54.134Z,4.14
2022-12-09T16:09:20.596Z,4.13
2022-12-09T16:11:01.017Z,4.12
2022-12-09T16:12:39.529Z,4.10
2022-12-09T16:14:18.837Z,4.09
2022-12-09T16:15:41.858Z,4.07
2022-12-09T16:17:05.302Z,4.06
2022-12-09T16:18:28.612Z,4.05
2022-12-09T16:19:50.378Z,4.03
2022-12-09T16:21:23.734Z,4.02
2022-12-09T16:22:45.583Z,4.00
2022-12-09T16:24:08.666Z,3.99
2022-12-09T16:25:35.213Z,3.99
2022-12-09T16:26:58.427Z,3.98
2022-12-09T16:28:22.359Z,3.97
2022-12-09T16:29:49.728Z,3.94
2022-12-09T16:31:18.673Z,3.93
2022-12-09T16:32:42.202Z,3.91
2022-12-09T16:34:03.979Z,3.88
2022-12-09T16:35:27.340Z,3.86
2022-12-09T16:36:55.881Z,3.83
2022-12-09T16:38:28.285Z,3.80
2022-12-09T16:39:49.923Z,3.78
2022-12-09T16:41:15.807Z,3.76
2022-12-09T16:42:40.852Z,3.74
2022-12-09T16:44:03.407Z,3.72
2022-12-09T16:45:30.696Z,3.71
2022-12-09T16:47:03.791Z,3.70
2022-12-09T16:48:26.619Z,3.67
2022-12-09T16:49:49.047Z,3.66
2022-12-09T16:51:12.905Z,3.64
2022-12-09T16:52:36.108Z,3.64
2022-12-09T16:53:58.887Z,3.62
2022-12-09T16:55:22.396Z,3.61
2022-12-09T16:56:46.044Z,3.61
2022-12-09T16:58:07.931Z,3.60
2022-12-09T16:59:37.097Z,3.60
2022-12-09T17:01:00.786Z,3.59
2022-12-09T17:02:24.803Z,3.58
2022-12-09T17:03:49.683Z,3.59
2022-12-09T17:05:11.600Z,3.57
2022-12-09T17:06:33.335Z,3.55
2022-12-09T17:07:56.308Z,3.54
2022-12-09T17:09:19.115Z,3.54
2022-12-09T17:10:44.685Z,3.53
2022-12-09T17:12:06.723Z,3.53
2022-12-09T17:13:30.071Z,3.53
2022-12-09T17:15:09.403Z,3.53
2022-12-09T17:16:34.526Z,3.53
2022-12-09T17:18:43.848Z,3.52
2022-12-09T17:20:09.094Z,3.49
2022-12-09T17:21:33.556Z,3.49
2022-12-09T17:22:56.592Z,3.48
2022-12-09T17:24:21.065Z,3.47
2022-12-09T17:25:42.863Z,3.46
2022-12-09T17:27:07.477Z,3.46
2022-12-09T17:28:31.116Z,3.44
2022-12-09T17:30:00.440Z,3.43
2022-12-09T17:31:24.289Z,3.42
2022-12-09T17:32:56.134Z,3.42
2022-12-09T17:34:21.482Z,3.41
2022-12-09T17:35:45.646Z,3.40
2022-12-09T17:37:13.022Z,3.40
2022-12-09T17:38:46.911Z,3.39
2022-12-09T17:40:49.034Z,3.38
2022-12-09T17:42:32.765Z,3.38
2022-12-09T17:43:59.807Z,3.39
2022-12-09T17:45:29.588Z,3.39
2022-12-09T17:46:51.782Z,3.40
2022-12-09T17:48:13.627Z,3.39
2022-12-09T17:49:35.269Z,3.39
2022-12-09T17:51:05.260Z,3.36
2022-12-09T17:52:33.332Z,3.34
2022-12-09T17:53:56.814Z,3.35
2022-12-09T17:55:38.273Z,3.34
2022-12-09T17:57:02.750Z,3.33
2022-12-09T17:58:27.400Z,3.33
2022-12-09T17:59:53.121Z,3.33
2022-12-09T18:01:42.566Z,3.33
2022-12-09T18:05:16.668Z,3.32
2022-12-09T18:07:14.021Z,3.31
2022-12-09T18:10:32.901Z,3.29
2022-12-09T18:11:58.352Z,3.27
2022-12-09T18:13:57.409Z,3.26
2022-12-09T18:17:29.588Z,3.26
2022-12-09T18:21:23.356Z,3.27
2022-12-09T18:23:11.806Z,3.28
2022-12-09T18:26:23.505Z,3.26
2022-12-09T18:27:51.432Z,3.27
2022-12-09T18:32:24.464Z,3.28
2022-12-09T18:34:16.751Z,3.28
2022-12-09T18:38:32.563Z,3.28
2022-12-09T18:39:57.907Z,3.29
2022-12-09T18:41:39.171Z,3.29
2022-12-09T18:43:05.528Z,3.29
2022-12-09T18:44:32.722Z,3.28
2022-12-09T18:46:21.386Z,3.27
2022-12-09T18:47:58.611Z,3.27
2022-12-09T18:49:37.864Z,3.27
2022-12-09T18:51:02.482Z,3.26
2022-12-09T18:53:11.931Z,3.25
2022-12-09T18:54:36.759Z,3.24
2022-12-09T18:55:58.456Z,3.23
2022-12-09T18:57:30.898Z,3.21
2022-12-09T18:59:34.190Z,3.21
2022-12-09T19:01:10.162Z,3.22
2022-12-09T19:02:36.003Z,3.21
2022-12-09T19:04:15.975Z,3.22
2022-12-09T19:05:42.466Z,3.22
2022-12-09T19:07:11.502Z,3.23
2022-12-09T19:08:56.417Z,3.21
2022-12-09T19:10:21.364Z,3.21
2022-12-09T19:11:43.922Z,3.19
2022-12-09T19:13:12.317Z,3.19
2022-12-09T19:14:35.467Z,3.19
2022-12-09T19:16:14.461Z,3.17
2022-12-09T19:17:35.942Z,3.16
2022-12-09T19:19:07.147Z,3.15
2022-12-09T19:20:50.902Z,3.13
2022-12-09T19:22:13.357Z,3.11